Time;durP1;ratioP1;P1;durP2;ratioP2;P2;SDS_P1;SDS_P2;PMS_P1;PMS_P2;Temp;Humidity;BMP_temperature;BMP_pressure;BME280_temperature;BME280_humidity;BME280_pressure;Samples;Min_cycle;Max_cycle;Signal;HPM_P1;HPM_P2
2022/09/12 00:01:15;;;;;;;28.07;11.67;;;20.30;58.40;;;;;;5012875;28;20473;-86
2022/09/12 00:03:43;;;;;;;39.27;13.30;;;20.30;58.70;;;;;;5042842;28;20545;-86
2022/09/12 00:06:12;;;;;;;34.17;13.20;;;20.10;59.50;;;;;;5030932;28;20498;-86
2022/09/12 00:08:39;;;;;;;33.37;14.43;;;20.00;59.90;;;;;;5019324;28;20559;-85
2022/09/12 00:11:10;;;;;;;36.33;13.53;;;19.60;60.50;;;;;;5063684;28;20469;-86
2022/09/12 00:13:38;;;;;;;30.83;14.87;;;19.30;62.00;;;;;;5063383;28;20456;-85
2022/09/12 00:16:06;;;;;;;26.93;12.60;;;19.50;61.40;;;;;;5060430;28;20497;-85
2022/09/12 00:18:33;;;;;;;22.50;14.63;;;19.70;60.30;;;;;;5041098;28;20484;-87
2022/09/12 00:21:03;;;;;;;24.73;14.33;;;19.90;59.90;;;;;;5028046;28;20460;-86
2022/09/12 00:23:31;;;;;;;22.13;12.30;;;20.00;60.00;;;;;;5060653;28;20455;-86
2022/09/12 00:25:58;;;;;;;22.83;10.73;;;20.00;59.90;;;;;;5061526;28;20954;-85
2022/09/12 00:28:26;;;;;;;14.93;9.80;;;20.00;59.90;;;;;;5059455;28;20468;-85
2022/09/12 00:30:53;;;;;;;20.73;10.97;;;20.00;59.80;;;;;;5061303;28;20453;-87
2022/09/12 00:33:20;;;;;;;16.87;11.40;;;20.00;59.70;;;;;;5063588;28;21418;-85
2022/09/12 00:35:49;;;;;;;23.57;11.17;;;20.10;59.70;;;;;;5059253;28;20836;-86
2022/09/12 00:38:17;;;;;;;18.93;12.37;;;20.20;59.60;;;;;;5063120;28;20468;-86
2022/09/12 00:40:45;;;;;;;16.07;10.17;;;20.20;59.50;;;;;;5059358;28;20869;-85
2022/09/12 00:43:14;;;;;;;20.43;9.57;;;20.10;59.30;;;;;;5043347;28;20473;-86
2022/09/12 00:45:42;;;;;;;36.87;9.83;;;20.10;59.50;;;;;;5025319;28;20439;-85
2022/09/12 00:48:19;;;;;;;47.07;11.07;;;19.90;59.50;;;;;;5060268;28;20469;-86
2022/09/12 00:50:46;;;;;;;19.43;10.03;;;19.70;60.00;;;;;;5062573;28;21122;-85
2022/09/12 00:53:13;;;;;;;31.70;10.03;;;19.70;60.30;;;;;;5059907;28;21014;-88
2022/09/12 00:55:44;;;;;;;20.93;10.37;;;19.70;60.40;;;;;;5041231;28;20464;-87
2022/09/12 00:58:17;;;;;;;22.77;10.20;;;19.70;60.50;;;;;;5045789;28;20440;-85
2022/09/12 01:00:46;;;;;;;68.83;12.47;;;19.70;60.50;;;;;;5059486;28;20477;-86
2022/09/12 01:03:17;;;;;;;133.23;14.77;;;19.40;61.20;;;;;;5058577;28;20440;-85
2022/09/12 01:05:52;;;;;;;20.90;10.87;;;19.50;61.20;;;;;;5031258;28;20498;-86
2022/09/12 01:08:20;;;;;;;22.83;9.60;;;19.60;61.10;;;;;;5062300;28;20478;-86
2022/09/12 01:10:47;;;;;;;63.73;12.23;;;19.70;60.90;;;;;;5061859;28;20487;-86
2022/09/12 01:13:14;;;;;;;32.77;11.73;;;19.70;60.60;;;;;;5046364;28;20875;-85
2022/09/12 01:15:42;;;;;;;21.63;10.37;;;19.70;60.60;;;;;;5040581;28;20514;-85
2022/09/12 01:18:20;;;;;;;117.13;13.93;;;19.80;60.80;;;;;;5006052;28;21058;-86
2022/09/12 01:21:02;;;;;;;142.33;15.80;;;19.90;60.70;;;;;;5061815;28;20452;-86
2022/09/12 01:24:02;;;;;;;20.40;10.20;;;19.60;60.60;;;;;;5065292;28;20464;-85
2022/09/12 01:27:01;;;;;;;39.60;11.00;;;19.60;61.00;;;;;;5064320;28;20459;-87
2022/09/12 01:29:44;;;;;;;39.43;11.53;;;19.70;61.00;;;;;;5029588;28;20480;-86
2022/09/12 01:32:20;;;;;;;28.40;10.60;;;19.80;60.80;;;;;;5029559;28;20459;-86
2022/09/12 01:34:51;;;;;;;47.27;10.70;;;19.70;60.90;;;;;;5066796;28;20474;-87
2022/09/12 01:37:27;;;;;;;34.87;11.43;;;19.60;61.10;;;;;;5047189;28;20455;-85
2022/09/12 01:40:01;;;;;;;46.47;11.70;;;19.60;61.10;;;;;;5048199;28;20467;-85
2022/09/12 01:42:34;;;;;;;42.93;11.60;;;19.70;61.10;;;;;;5062638;28;20940;-86
2022/09/12 01:45:07;;;;;;;90.13;13.67;;;19.80;60.90;;;;;;5030820;28;20432;-87
2022/09/12 01:47:41;;;;;;;17.80;9.67;;;19.90;60.40;;;;;;5064494;28;20468;-85
2022/09/12 01:50:13;;;;;;;71.47;17.33;;;19.90;60.30;;;;;;5043947;28;21287;-86
2022/09/12 01:52:45;;;;;;;39.40;9.93;;;19.60;61.30;;;;;;5048090;28;20456;-85
2022/09/12 01:55:16;;;;;;;30.73;12.37;;;19.50;61.30;;;;;;5047762;28;20451;-85
2022/09/12 01:57:49;;;;;;;28.60;11.70;;;19.60;61.50;;;;;;5048926;28;20438;-85
2022/09/12 02:00:16;;;;;;;41.33;11.63;;;19.60;61.60;;;;;;5064075;28;20495;-87
2022/09/12 02:02:51;;;;;;;45.93;12.13;;;19.70;61.30;;;;;;5032713;28;20442;-85
2022/09/12 02:05:25;;;;;;;26.53;11.77;;;19.70;60.90;;;;;;5046491;28;20455;-85
2022/09/12 02:07:56;;;;;;;109.87;14.70;;;19.80;60.80;;;;;;5037244;28;20465;-87
2022/09/12 02:10:28;;;;;;;29.27;11.60;;;19.50;61.10;;;;;;5024442;28;20465;-85
2022/09/12 02:13:00;;;;;;;41.17;12.70;;;19.50;61.70;;;;;;5035159;28;20453;-86
2022/09/12 02:15:32;;;;;;;19.50;10.30;;;19.60;61.50;;;;;;5060792;28;20448;-86
2022/09/12 02:18:03;;;;;;;22.10;11.47;;;19.70;61.10;;;;;;5036332;28;20548;-86
2022/09/12 02:20:34;;;;;;;21.53;10.93;;;19.70;60.80;;;;;;5064109;28;20467;-87
2022/09/12 02:23:03;;;;;;;34.13;11.97;;;19.40;61.20;;;;;;5064308;28;21172;-84
2022/09/12 02:25:30;;;;;;;24.90;11.53;;;19.20;61.90;;;;;;5063258;28;20459;-85
2022/09/12 02:28:01;;;;;;;42.13;12.63;;;19.20;62.10;;;;;;5062689;28;20530;-86
2022/09/12 02:30:35;;;;;;;25.73;12.50;;;19.40;61.60;;;;;;5041667;28;20492;-86
2022/09/12 02:33:09;;;;;;;56.37;13.70;;;19.50;61.20;;;;;;5029937;28;20445;-85
2022/09/12 02:35:43;;;;;;;44.50;13.57;;;19.20;61.80;;;;;;5047665;28;20449;-86
2022/09/12 02:38:16;;;;;;;25.20;11.93;;;19.30;61.90;;;;;;5034246;28;20441;-84
2022/09/12 02:40:43;;;;;;;24.30;11.53;;;19.40;62.50;;;;;;5060568;28;20452;-86
2022/09/12 02:43:10;;;;;;;43.57;11.00;;;19.40;61.50;;;;;;5027422;28;20447;-86
2022/09/12 02:45:37;;;;;;;26.10;10.77;;;19.20;61.20;;;;;;5032192;28;20509;-86
2022/09/12 02:48:09;;;;;;;26.53;11.10;;;19.20;61.70;;;;;;5044724;28;20510;-86
2022/09/12 02:50:37;;;;;;;24.80;11.60;;;19.20;61.50;;;;;;5043723;28;20880;-86
2022/09/12 02:53:06;;;;;;;33.03;12.17;;;19.30;61.70;;;;;;5064557;28;20457;-85
2022/09/12 02:55:35;;;;;;;23.30;11.90;;;19.20;61.50;;;;;;5044068;28;21087;-85
2022/09/12 02:58:05;;;;;;;19.73;12.30;;;19.30;61.30;;;;;;5063538;28;20442;-86
2022/09/12 03:00:37;;;;;;;24.53;11.03;;;19.40;61.00;;;;;;5059545;28;20523;-87
2022/09/12 03:03:24;;;;;;;48.83;12.97;;;19.50;60.90;;;;;;5030450;28;20459;-85
2022/09/12 03:05:58;;;;;;;27.60;10.70;;;19.50;60.50;;;;;;5028245;28;20868;-86
2022/09/12 03:08:50;;;;;;;42.17;11.60;;;19.50;60.40;;;;;;5042886;28;20472;-86
2022/09/12 03:11:35;;;;;;;25.97;11.73;;;19.30;60.90;;;;;;5028467;28;20772;-86
2022/09/12 03:14:13;;;;;;;22.33;11.10;;;19.30;61.00;;;;;;5036143;28;20990;-87
2022/09/12 03:16:46;;;;;;;24.23;11.73;;;19.30;61.00;;;;;;5048752;28;20448;-85
2022/09/12 03:19:25;;;;;;;24.30;11.13;;;19.30;60.70;;;;;;5060984;28;20453;-87
2022/09/12 03:22:00;;;;;;;21.57;11.03;;;19.20;60.70;;;;;;5067199;28;20464;-85
2022/09/12 03:24:32;;;;;;;33.77;11.17;;;19.20;60.70;;;;;;5046849;28;21150;-86
2022/09/12 03:27:08;;;;;;;18.80;10.87;;;19.20;61.00;;;;;;5029360;28;20437;-85
2022/09/12 03:29:38;;;;;;;21.90;10.70;;;19.10;60.90;;;;;;5039613;28;20518;-86
2022/09/12 03:32:06;;;;;;;21.10;11.87;;;19.10;60.90;;;;;;5061809;28;20452;-86
2022/09/12 03:34:34;;;;;;;18.67;11.23;;;19.20;60.80;;;;;;5062038;28;20550;-86
2022/09/12 03:37:01;;;;;;;13.40;8.87;;;19.30;60.80;;;;;;5044303;28;20987;-86
2022/09/12 03:39:28;;;;;;;18.40;9.90;;;19.30;60.20;;;;;;5044560;28;20475;-85
2022/09/12 03:41:56;;;;;;;15.40;8.73;;;19.30;59.90;;;;;;5061248;28;20444;-86
2022/09/12 03:44:23;;;;;;;17.10;8.40;;;19.40;59.70;;;;;;5041748;28;20456;-85
2022/09/12 03:46:51;;;;;;;7.47;5.80;;;19.40;59.60;;;;;;5056398;28;20457;-85
2022/09/12 03:49:18;;;;;;;14.90;6.93;;;19.40;59.20;;;;;;5061034;28;20483;-86
2022/09/12 03:51:46;;;;;;;11.57;6.40;;;19.20;59.50;;;;;;5062099;28;20453;-85
2022/09/12 03:54:13;;;;;;;10.00;7.63;;;19.00;59.80;;;;;;5059685;28;20456;-87
2022/09/12 03:56:40;;;;;;;10.33;7.17;;;19.00;59.70;;;;;;5062447;28;20469;-86
2022/09/12 03:59:07;;;;;;;16.67;7.83;;;19.00;60.00;;;;;;5061026;28;20519;-86
2022/09/12 04:01:34;;;;;;;11.53;7.47;;;19.10;59.80;;;;;;5028089;28;20945;-86
2022/09/12 04:04:02;;;;;;;20.97;7.60;;;19.00;59.60;;;;;;5036461;28;20999;-86
2022/09/12 04:06:30;;;;;;;9.90;7.23;;;18.60;60.80;;;;;;5049144;28;20447;-86
2022/09/12 04:08:58;;;;;;;10.73;7.00;;;18.60;61.60;;;;;;5042417;28;20485;-86
2022/09/12 04:11:25;;;;;;;9.70;6.73;;;18.80;60.90;;;;;;5062036;28;20460;-85
2022/09/12 04:13:52;;;;;;;11.37;8.40;;;18.90;60.40;;;;;;5057005;28;20453;-86
2022/09/12 04:16:19;;;;;;;12.67;7.97;;;18.90;60.20;;;;;;5033082;28;20516;-86
2022/09/12 04:18:46;;;;;;;17.83;7.90;;;19.00;59.80;;;;;;5044129;28;20992;-85
2022/09/12 04:21:16;;;;;;;20.13;9.70;;;18.90;59.60;;;;;;5059188;28;20563;-86
2022/09/12 04:23:43;;;;;;;20.13;8.90;;;19.00;59.70;;;;;;5011729;28;20463;-87
2022/09/12 04:26:13;;;;;;;11.17;8.57;;;18.90;60.10;;;;;;5029051;28;20457;-86
2022/09/12 04:28:41;;;;;;;25.00;8.33;;;18.90;60.10;;;;;;5021394;28;20579;-86
2022/09/12 04:31:10;;;;;;;15.50;11.33;;;18.60;60.50;;;;;;5043079;28;20460;-85
2022/09/12 04:33:37;;;;;;;21.83;10.77;;;18.50;60.80;;;;;;5028125;28;21150;-86
2022/09/12 04:36:05;;;;;;;14.37;8.90;;;18.60;61.50;;;;;;5059543;28;20453;-86
2022/09/12 04:38:33;;;;;;;11.77;7.70;;;18.70;60.40;;;;;;5023493;28;20526;-87
2022/09/12 04:40:59;;;;;;;12.27;7.80;;;18.80;60.20;;;;;;5048071;28;20456;-86
2022/09/12 04:43:28;;;;;;;12.73;6.87;;;18.80;59.90;;;;;;5046093;28;20444;-86
2022/09/12 04:45:55;;;;;;;15.27;6.37;;;18.90;60.10;;;;;;5040975;28;20535;-85
2022/09/12 04:48:22;;;;;;;20.57;6.40;;;18.90;59.70;;;;;;5066774;28;20520;-86
2022/09/12 04:50:49;;;;;;;9.53;6.57;;;18.90;59.10;;;;;;5050685;28;20444;-86
2022/09/12 04:53:16;;;;;;;10.97;6.67;;;18.80;59.40;;;;;;5042544;28;20451;-87
2022/09/12 04:55:43;;;;;;;7.60;5.53;;;18.80;59.30;;;;;;5061317;28;20452;-87
2022/09/12 04:58:10;;;;;;;8.70;4.97;;;18.70;59.30;;;;;;5030926;28;20528;-87
2022/09/12 05:00:38;;;;;;;7.50;5.07;;;18.60;59.00;;;;;;5058953;28;21047;-86
2022/09/12 05:03:05;;;;;;;7.33;4.47;;;18.70;59.00;;;;;;5024543;28;20449;-86
2022/09/12 05:05:32;;;;;;;5.50;4.23;;;18.70;58.80;;;;;;5040978;28;20859;-86
2022/09/12 05:07:59;;;;;;;6.40;5.00;;;18.80;58.50;;;;;;5060951;28;20472;-86
2022/09/12 05:10:27;;;;;;;7.80;5.20;;;18.80;58.10;;;;;;5039176;28;20465;-85
2022/09/12 05:12:54;;;;;;;10.90;5.10;;;18.70;58.30;;;;;;5045321;28;20844;-86
2022/09/12 05:15:21;;;;;;;6.67;5.00;;;18.70;58.50;;;;;;5031410;28;20449;-86
2022/09/12 05:17:49;;;;;;;5.40;4.33;;;18.60;58.60;;;;;;5041110;28;20453;-86
2022/09/12 05:20:16;;;;;;;5.87;3.80;;;18.50;58.50;;;;;;5057259;28;20931;-84
2022/09/12 05:22:43;;;;;;;7.50;4.80;;;18.60;58.80;;;;;;5061024;28;20476;-86
2022/09/12 05:25:10;;;;;;;8.23;5.10;;;18.60;58.50;;;;;;5032375;28;20439;-86
2022/09/12 05:27:37;;;;;;;8.10;4.80;;;18.60;58.50;;;;;;5062138;28;20935;-86
2022/09/12 05:30:06;;;;;;;5.13;4.50;;;18.60;58.40;;;;;;5058744;28;20574;-88
2022/09/12 05:32:33;;;;;;;6.10;4.70;;;18.60;58.30;;;;;;5062497;28;20531;-86
2022/09/12 05:35:01;;;;;;;5.90;4.40;;;18.40;58.90;;;;;;5044111;28;20707;-86
2022/09/12 05:37:29;;;;;;;4.67;3.90;;;18.20;58.90;;;;;;5064014;28;20457;-87
2022/09/12 05:39:58;;;;;;;9.00;5.17;;;18.30;58.90;;;;;;5060979;28;20884;-85
2022/09/12 05:42:24;;;;;;;7.27;4.10;;;18.40;58.60;;;;;;5058762;28;20452;-88
2022/09/12 05:44:51;;;;;;;9.67;5.87;;;18.60;58.40;;;;;;5039953;28;20453;-87
2022/09/12 05:47:18;;;;;;;8.97;5.47;;;18.70;58.30;;;;;;5025239;28;20456;-88
2022/09/12 05:49:47;;;;;;;8.70;5.43;;;18.80;58.30;;;;;;5063635;28;20480;-86
2022/09/12 05:52:16;;;;;;;14.07;5.80;;;18.80;58.10;;;;;;5045917;28;20471;-86
2022/09/12 05:54:43;;;;;;;27.77;6.43;;;18.70;58.40;;;;;;5044261;28;20457;-86
2022/09/12 05:57:09;;;;;;;11.77;6.23;;;18.70;58.20;;;;;;5044070;28;20889;-86
2022/09/12 05:59:37;;;;;;;30.97;6.47;;;18.70;58.70;;;;;;5035198;28;20548;-86
2022/09/12 06:02:03;;;;;;;28.87;7.50;;;18.40;59.10;;;;;;5030710;28;20455;-88
2022/09/12 06:04:30;;;;;;;13.47;7.43;;;18.30;59.80;;;;;;5031424;28;21001;-88
2022/09/12 06:06:58;;;;;;;12.10;6.77;;;18.20;60.30;;;;;;5004970;28;20876;-86
2022/09/12 06:09:26;;;;;;;15.20;7.73;;;18.40;60.10;;;;;;5012739;28;20476;-87
2022/09/12 06:11:54;;;;;;;11.20;6.90;;;18.50;59.80;;;;;;5038904;28;20984;-85
2022/09/12 06:14:21;;;;;;;12.20;7.17;;;18.50;59.50;;;;;;5023342;28;20468;-86
2022/09/12 06:16:49;;;;;;;10.90;6.47;;;18.50;59.50;;;;;;5028450;28;20500;-87
2022/09/12 06:19:18;;;;;;;11.10;6.90;;;18.50;59.40;;;;;;5011847;28;20465;-87
2022/09/12 06:21:46;;;;;;;10.17;6.23;;;18.50;59.10;;;;;;5063821;28;20452;-87
2022/09/12 06:24:13;;;;;;;10.73;5.63;;;18.50;59.40;;;;;;5059242;28;20447;-86
2022/09/12 06:26:42;;;;;;;13.23;5.50;;;18.60;59.30;;;;;;5043220;28;20457;-87
2022/09/12 06:29:10;;;;;;;9.03;6.00;;;18.40;59.00;;;;;;5030472;28;20473;-86
2022/09/12 06:31:40;;;;;;;7.73;5.60;;;18.30;59.70;;;;;;5046036;28;20468;-88
2022/09/12 06:34:08;;;;;;;9.57;5.10;;;18.10;60.10;;;;;;5044288;28;20624;-87
2022/09/12 06:36:38;;;;;;;8.80;4.90;;;18.10;60.10;;;;;;5010352;28;20448;-88
2022/09/12 06:39:08;;;;;;;9.13;5.87;;;18.30;59.90;;;;;;5048216;28;20471;-87
2022/09/12 06:41:35;;;;;;;5.93;4.83;;;18.50;59.60;;;;;;5045831;28;20837;-87
2022/09/12 06:44:04;;;;;;;5.50;4.60;;;18.60;59.60;;;;;;5050060;28;20514;-87
2022/09/12 06:46:31;;;;;;;9.63;4.90;;;18.60;59.00;;;;;;5029057;28;20473;-87
2022/09/12 06:48:59;;;;;;;10.73;5.80;;;18.60;58.90;;;;;;5043161;28;20472;-88
2022/09/12 06:51:28;;;;;;;7.43;4.97;;;18.40;59.90;;;;;;5061747;28;20451;-87
2022/09/12 06:53:56;;;;;;;7.97;4.97;;;18.70;59.50;;;;;;5021368;28;20445;-89
2022/09/12 06:56:25;;;;;;;8.83;5.70;;;18.60;58.60;;;;;;5041930;28;21195;-87
2022/09/12 06:58:52;;;;;;;8.87;6.40;;;18.60;59.20;;;;;;5042568;28;21223;-87
2022/09/12 07:01:23;;;;;;;15.40;6.30;;;18.90;59.40;;;;;;5061235;28;20554;-86
2022/09/12 07:03:52;;;;;;;7.57;5.47;;;18.70;59.20;;;;;;5048169;28;20421;-86
2022/09/12 07:06:22;;;;;;;7.43;5.77;;;18.60;59.20;;;;;;5048743;28;20452;-86
2022/09/12 07:08:50;;;;;;;6.63;4.83;;;18.70;59.30;;;;;;5057200;28;20479;-88
2022/09/12 07:11:20;;;;;;;8.53;6.23;;;18.70;59.40;;;;;;5009644;28;20465;-90
2022/09/12 07:13:48;;;;;;;9.60;6.93;;;18.80;59.10;;;;;;5051579;28;20450;-90
2022/09/12 07:16:16;;;;;;;11.60;7.33;;;18.70;59.40;;;;;;5057179;28;20453;-88
2022/09/12 07:18:45;;;;;;;11.23;7.17;;;18.80;59.70;;;;;;5029260;28;20477;-89
2022/09/12 07:21:14;;;;;;;10.57;6.53;;;18.90;59.40;;;;;;5022656;28;20821;-85
2022/09/12 07:23:42;;;;;;;10.10;6.23;;;18.90;59.10;;;;;;5047686;28;20453;-88
2022/09/12 07:26:11;;;;;;;7.70;5.20;;;18.90;59.30;;;;;;5022966;28;20452;-87
2022/09/12 07:28:39;;;;;;;10.97;7.00;;;19.10;59.20;;;;;;5041502;28;20477;-87
2022/09/12 07:31:07;;;;;;;9.33;6.20;;;18.80;59.20;;;;;;5060296;28;20477;-86
2022/09/12 07:33:34;;;;;;;8.43;6.10;;;18.80;59.70;;;;;;5043622;28;20461;-88
2022/09/12 07:36:04;;;;;;;10.43;7.80;;;18.80;59.30;;;;;;5040147;28;20443;-87
2022/09/12 07:38:32;;;;;;;11.83;7.93;;;18.70;59.80;;;;;;5057108;28;20453;-86
2022/09/12 07:41:00;;;;;;;10.37;8.40;;;18.50;60.10;;;;;;5040904;28;20452;-88
2022/09/12 07:43:27;;;;;;;11.87;7.63;;;18.40;60.10;;;;;;5061711;28;20996;-87
2022/09/12 07:45:57;;;;;;;13.03;8.47;;;18.10;61.00;;;;;;5060549;28;20870;-88
2022/09/12 07:48:24;;;;;;;10.83;7.90;;;18.00;62.10;;;;;;5044595;28;20444;-86
2022/09/12 07:50:58;;;;;;;11.43;7.40;;;18.20;61.90;;;;;;5057609;28;20503;-86
2022/09/12 07:53:27;;;;;;;12.87;9.30;;;18.40;61.30;;;;;;5043109;28;21036;-86
2022/09/12 07:55:55;;;;;;;12.20;8.83;;;18.20;61.10;;;;;;5057821;28;20461;-85
2022/09/12 07:58:22;;;;;;;11.47;7.87;;;18.20;61.70;;;;;;5045900;28;20818;-87
2022/09/12 08:00:49;;;;;;;15.07;9.47;;;18.20;61.80;;;;;;5062702;28;20586;-87
2022/09/12 08:03:16;;;;;;;14.47;9.27;;;18.30;61.50;;;;;;5040946;28;20822;-87
2022/09/12 08:05:43;;;;;;;9.63;7.30;;;18.50;61.80;;;;;;5061495;28;21179;-88
2022/09/12 08:08:10;;;;;;;11.37;8.97;;;18.80;60.80;;;;;;5027919;28;20457;-88
2022/09/12 08:10:39;;;;;;;11.67;8.83;;;19.10;59.90;;;;;;5043839;28;20476;-88
2022/09/12 08:13:06;;;;;;;17.00;8.13;;;19.20;59.80;;;;;;5049552;28;20449;-88
2022/09/12 08:15:35;;;;;;;12.23;8.70;;;19.40;59.40;;;;;;5056840;28;20579;-88
2022/09/12 08:18:02;;;;;;;10.93;7.73;;;19.60;59.00;;;;;;5061443;28;20479;-88
2022/09/12 08:20:29;;;;;;;12.70;8.40;;;19.50;58.40;;;;;;5025784;28;20464;-87
2022/09/12 08:22:56;;;;;;;17.83;9.57;;;19.10;59.30;;;;;;5048601;28;20456;-87
2022/09/12 08:25:23;;;;;;;12.63;8.57;;;19.10;59.50;;;;;;5030088;28;20449;-87
2022/09/12 08:27:52;;;;;;;12.77;8.37;;;19.00;59.90;;;;;;5045334;28;20579;-86
2022/09/12 08:30:19;;;;;;;12.80;8.27;;;19.10;59.60;;;;;;5062416;28;20477;-85
2022/09/12 08:32:46;;;;;;;9.47;7.83;;;19.20;59.80;;;;;;5048944;28;20463;-87
2022/09/12 08:35:13;;;;;;;15.50;8.57;;;19.40;59.50;;;;;;5066376;28;20452;-88
2022/09/12 08:37:40;;;;;;;12.30;8.23;;;19.50;59.30;;;;;;5048676;28;20440;-90
2022/09/12 08:40:14;;;;;;;13.27;8.47;;;19.50;59.30;;;;;;5013372;28;20470;-86
2022/09/12 08:42:51;;;;;;;14.10;8.83;;;19.50;59.30;;;;;;5064817;28;21124;-87
2022/09/12 08:45:24;;;;;;;10.23;7.27;;;19.60;59.90;;;;;;5053368;28;20544;-87
2022/09/12 08:47:52;;;;;;;13.57;9.00;;;19.40;59.40;;;;;;5065192;28;20984;-87
2022/09/12 08:50:26;;;;;;;10.47;8.40;;;19.30;60.10;;;;;;5029761;28;20480;-86
2022/09/12 08:52:57;;;;;;;11.17;8.40;;;19.50;60.10;;;;;;5050415;28;20481;-89
2022/09/12 08:55:33;;;;;;;9.80;7.50;;;19.70;59.50;;;;;;5036517;28;20463;-87
2022/09/12 08:58:05;;;;;;;14.10;9.17;;;19.70;59.00;;;;;;5025223;28;20444;-89
2022/09/12 09:00:41;;;;;;;12.20;8.37;;;19.70;59.40;;;;;;5048366;28;20465;-88
2022/09/12 09:03:48;;;;;;;10.40;7.40;;;19.90;59.20;;;;;;5033813;28;20455;-88
2022/09/12 09:06:26;;;;;;;10.53;7.50;;;19.90;59.40;;;;;;4982194;28;20452;-87
2022/09/12 09:09:04;;;;;;;10.90;8.10;;;19.90;59.20;;;;;;4983661;28;20542;-88
2022/09/12 09:11:53;;;;;;;15.80;7.97;;;20.10;59.10;;;;;;5021253;28;21250;-89
2022/09/12 09:14:48;;;;;;;10.83;7.93;;;20.20;58.70;;;;;;5031653;28;20456;-88
2022/09/12 09:17:24;;;;;;;10.80;8.63;;;20.30;58.50;;;;;;5036546;28;20961;-89
2022/09/12 09:19:58;;;;;;;14.30;8.67;;;20.20;58.90;;;;;;5036763;28;20523;-87
2022/09/12 09:22:35;;;;;;;12.07;8.50;;;20.20;59.20;;;;;;5045932;28;20930;-87
2022/09/12 09:25:07;;;;;;;12.83;9.93;;;20.30;59.20;;;;;;5062939;28;20462;-87
2022/09/12 09:27:41;;;;;;;15.10;8.57;;;20.40;58.90;;;;;;5030259;28;20456;-87
2022/09/12 09:30:15;;;;;;;14.93;9.40;;;20.70;58.50;;;;;;5063875;28;20479;-88
2022/09/12 09:32:47;;;;;;;12.50;8.83;;;20.90;58.10;;;;;;5037290;28;20821;-88
2022/09/12 09:35:17;;;;;;;12.20;10.03;;;20.90;57.80;;;;;;5062228;28;20494;-87
2022/09/12 09:37:57;;;;;;;10.77;8.97;;;20.90;57.70;;;;;;5049943;28;20491;-89
2022/09/12 09:40:28;;;;;;;12.30;9.70;;;20.60;59.00;;;;;;5014941;28;20475;-87
2022/09/12 09:43:05;;;;;;;12.47;9.50;;;20.80;58.80;;;;;;5015028;28;20888;-89
2022/09/12 09:45:32;;;;;;;17.30;11.00;;;21.00;57.90;;;;;;5031522;28;20564;-91
2022/09/12 09:48:13;;;;;;;12.43;9.57;;;21.30;57.80;;;;;;5064670;28;20453;-88
2022/09/12 09:50:48;;;;;;;11.83;9.67;;;21.60;57.40;;;;;;5024262;28;20460;-88
2022/09/12 09:53:26;;;;;;;12.53;10.43;;;21.80;56.50;;;;;;5056985;28;20501;-88
2022/09/12 09:55:55;;;;;;;12.43;9.20;;;22.00;56.40;;;;;;5029221;28;20478;-87
2022/09/12 09:58:30;;;;;;;19.63;10.63;;;22.10;55.90;;;;;;5030127;28;20456;-90
2022/09/12 10:00:59;;;;;;;12.13;9.97;;;21.90;56.00;;;;;;5031736;28;20432;-86
2022/09/12 10:03:31;;;;;;;10.10;8.30;;;22.00;56.40;;;;;;5053061;28;20507;-89
2022/09/12 10:06:01;;;;;;;12.20;8.70;;;21.80;56.70;;;;;;5066692;28;20449;-88
2022/09/12 10:08:30;;;;;;;14.97;9.13;;;21.90;57.00;;;;;;5062459;28;20461;-88
2022/09/12 10:11:00;;;;;;;13.90;9.27;;;21.90;57.00;;;;;;5050476;28;20540;-88
2022/09/12 10:13:34;;;;;;;9.60;7.90;;;22.00;57.10;;;;;;5062217;28;20519;-89
2022/09/12 10:16:04;;;;;;;14.40;8.37;;;22.30;56.30;;;;;;5046016;28;20445;-89
2022/09/12 10:18:41;;;;;;;9.60;7.60;;;22.60;56.30;;;;;;5047835;28;20871;-89
2022/09/12 10:21:19;;;;;;;10.43;8.67;;;22.70;55.60;;;;;;5033929;28;20877;-89
2022/09/12 10:23:47;;;;;;;12.47;7.87;;;22.90;55.50;;;;;;5031778;28;20588;-89
2022/09/12 10:26:19;;;;;;;8.37;7.17;;;23.20;55.10;;;;;;5015839;28;20453;-87
2022/09/12 10:28:50;;;;;;;11.93;7.67;;;23.50;54.60;;;;;;5017147;28;20480;-90
2022/09/12 10:31:27;;;;;;;11.50;8.53;;;23.70;54.20;;;;;;5033569;28;21041;-89
2022/09/12 10:33:58;;;;;;;8.07;7.10;;;23.80;53.40;;;;;;5043551;28;20540;-89
2022/09/12 10:36:26;;;;;;;8.10;6.93;;;23.70;54.10;;;;;;5032036;28;20464;-89
2022/09/12 10:38:56;;;;;;;10.07;7.37;;;23.70;54.20;;;;;;5030469;28;20471;-87
2022/09/12 10:41:24;;;;;;;11.43;7.53;;;24.10;54.30;;;;;;5047842;28;20513;-88
2022/09/12 10:43:51;;;;;;;9.20;7.90;;;24.10;53.30;;;;;;5033928;28;20943;-89
2022/09/12 10:46:29;;;;;;;7.93;7.03;;;24.30;53.80;;;;;;5062625;28;20461;-88
2022/09/12 10:49:20;;;;;;;8.60;6.63;;;24.30;52.90;;;;;;5051057;28;21238;-87
2022/09/12 10:51:47;;;;;;;14.13;7.20;;;24.20;53.40;;;;;;5030740;28;20464;-88
2022/09/12 10:54:18;;;;;;;9.93;7.40;;;24.30;53.10;;;;;;5034286;28;20749;-87
2022/09/12 10:57:04;;;;;;;10.60;7.20;;;24.40;53.00;;;;;;5047947;28;21108;-87
2022/09/12 10:59:49;;;;;;;7.40;5.90;;;24.30;52.70;;;;;;5061488;28;20472;-87
2022/09/12 11:02:27;;;;;;;7.40;6.13;;;24.30;53.00;;;;;;5063137;28;20449;-89
2022/09/12 11:05:02;;;;;;;9.23;7.37;;;24.60;53.00;;;;;;5029334;28;20445;-87
2022/09/12 11:07:46;;;;;;;7.90;6.00;;;24.80;51.70;;;;;;5062337;28;20445;-88
2022/09/12 11:10:29;;;;;;;10.87;6.23;;;25.00;52.10;;;;;;5027898;28;21200;-88
2022/09/12 11:13:04;;;;;;;7.40;6.60;;;25.10;51.90;;;;;;5058634;28;20444;-88
2022/09/12 11:15:51;;;;;;;9.63;6.80;;;25.40;51.10;;;;;;5011871;28;20517;-89
2022/09/12 11:18:32;;;;;;;7.73;6.00;;;25.80;50.00;;;;;;5044199;28;20439;-88
2022/09/12 11:21:28;;;;;;;7.40;6.27;;;25.70;52.10;;;;;;5061601;28;20479;-89
2022/09/12 11:24:18;;;;;;;10.60;7.23;;;26.00;49.40;;;;;;5061468;28;20453;-88
2022/09/12 11:26:57;;;;;;;9.03;6.90;;;25.80;49.80;;;;;;5070443;28;21226;-89
2022/09/12 11:29:39;;;;;;;8.57;6.73;;;25.80;49.90;;;;;;5058296;28;20471;-89
2022/09/12 11:32:30;;;;;;;7.90;6.70;;;25.90;49.90;;;;;;5035325;28;20475;-89
2022/09/12 11:35:07;;;;;;;9.90;8.80;;;26.00;49.90;;;;;;5043303;28;20453;-89
2022/09/12 11:37:48;;;;;;;7.77;6.97;;;26.10;49.00;;;;;;5044058;28;20936;-89
2022/09/12 11:40:27;;;;;;;8.90;6.90;;;26.10;49.20;;;;;;5041785;28;20484;-89
2022/09/12 11:43:00;;;;;;;7.93;7.13;;;26.40;48.90;;;;;;5052061;28;20511;-89
2022/09/12 11:45:32;;;;;;;12.33;7.20;;;26.60;48.50;;;;;;5029892;28;21054;-89
2022/09/12 11:48:06;;;;;;;8.03;6.07;;;26.40;47.90;;;;;;5049790;28;20486;-90
2022/09/12 11:50:32;;;;;;;11.07;6.60;;;26.50;49.30;;;;;;5043167;28;20475;-87
2022/09/12 11:53:06;;;;;;;9.77;6.83;;;26.40;47.70;;;;;;5028382;28;20928;-88
2022/09/12 11:55:46;;;;;;;12.00;7.80;;;26.40;48.50;;;;;;5008257;28;20463;-90
2022/09/12 11:58:13;;;;;;;9.80;7.97;;;26.50;47.60;;;;;;5040580;28;20464;-89
2022/09/12 12:00:45;;;;;;;10.50;7.60;;;26.50;47.80;;;;;;5048629;28;20473;-89
2022/09/12 12:03:18;;;;;;;9.77;7.77;;;26.50;48.00;;;;;;5046392;28;20468;-90
2022/09/12 12:05:52;;;;;;;8.10;7.30;;;26.60;48.00;;;;;;5048113;28;20459;-89
2022/09/12 12:08:22;;;;;;;7.13;6.40;;;26.60;47.70;;;;;;5034715;28;20545;-89
2022/09/12 12:10:52;;;;;;;9.30;7.83;;;26.80;47.70;;;;;;5047672;28;20504;-89
2022/09/12 12:13:23;;;;;;;8.23;6.70;;;27.00;47.80;;;;;;5043145;28;20498;-88
2022/09/12 12:15:53;;;;;;;9.17;7.17;;;27.30;47.30;;;;;;5063031;28;20464;-88
2022/09/12 12:18:24;;;;;;;7.87;6.47;;;27.50;46.50;;;;;;5050305;28;20468;-90
2022/09/12 12:20:53;;;;;;;9.40;7.30;;;27.60;45.30;;;;;;5048407;28;20928;-92
2022/09/12 12:23:27;;;;;;;8.47;7.07;;;27.70;45.00;;;;;;5051151;28;21271;-90
2022/09/12 12:25:56;;;;;;;8.70;7.03;;;27.20;44.50;;;;;;5038534;28;20483;-89
2022/09/12 12:29:01;;;;;;;11.00;6.97;;;27.00;46.50;;;;;;5062401;28;20467;-86
2022/09/12 12:31:28;;;;;;;8.23;6.10;;;27.40;46.40;;;;;;5007702;28;20492;-89
2022/09/12 12:34:03;;;;;;;8.10;7.13;;;27.80;45.30;;;;;;5012361;28;20457;-87
2022/09/12 12:36:37;;;;;;;9.10;6.50;;;28.20;44.30;;;;;;5059407;28;20546;-90
2022/09/12 12:39:48;;;;;;;7.73;5.70;;;28.30;43.30;;;;;;5033570;28;20556;-90
2022/09/12 12:43:01;;;;;;;6.80;6.07;;;28.40;42.40;;;;;;5030154;28;20464;-90
2022/09/12 12:46:01;;;;;;;8.00;5.80;;;28.20;41.90;;;;;;5049093;28;20453;-88
2022/09/12 12:48:36;;;;;;;8.63;6.10;;;27.80;42.40;;;;;;5046000;28;20448;-87
2022/09/12 12:51:27;;;;;;;5.77;5.20;;;27.70;42.80;;;;;;5024158;28;20463;-89
2022/09/12 12:53:55;;;;;;;6.70;5.80;;;27.80;42.00;;;;;;5059248;28;20807;-89
2022/09/12 12:56:34;;;;;;;6.33;5.30;;;27.80;42.40;;;;;;5026211;28;20464;-90
2022/09/12 12:59:04;;;;;;;6.07;5.37;;;27.90;41.90;;;;;;5043110;28;20526;-88
2022/09/12 13:01:39;;;;;;;5.17;4.67;;;27.90;42.20;;;;;;5026865;28;20436;-90